createdAt,value
2023-01-27T00:00:31.472Z,100564.81
2023-01-27T00:03:19.460Z,100561.06
2023-01-27T00:05:47.149Z,100561.13
2023-01-27T00:08:17.753Z,100555.47
2023-01-27T00:10:44.854Z,100556.88
2023-01-27T00:13:27.145Z,100560.44
2023-01-27T00:15:54.765Z,100562.72
2023-01-27T00:18:23.468Z,100559.06
2023-01-27T00:21:09.128Z,100553.16
2023-01-27T00:23:55.456Z,100552.84
2023-01-27T00:26:23.089Z,100552.66
2023-01-27T00:28:52.957Z,100557.81
2023-01-27T00:31:38.286Z,100555.78
2023-01-27T00:34:09.440Z,100556.09
2023-01-27T00:36:38.019Z,100550.91
2023-01-27T00:39:06.399Z,100559.53
2023-01-27T00:41:34.191Z,100559.16
2023-01-27T00:44:05.570Z,100560.84
2023-01-27T00:46:33.465Z,100557.06
2023-01-27T00:49:00.839Z,100563.31
2023-01-27T00:51:27.827Z,100561.72
2023-01-27T00:53:55.179Z,100544.06
2023-01-27T00:56:22.122Z,100555.91
2023-01-27T00:58:49.395Z,100556.91
2023-01-27T01:04:11.228Z,100561.22
2023-01-27T01:06:38.501Z,100549.97
2023-01-27T01:09:05.444Z,100549.16
2023-01-27T01:11:32.755Z,100549.16
2023-01-27T01:13:59.700Z,100543.31
2023-01-27T01:16:27.028Z,100544.69
2023-01-27T01:18:54.309Z,100541.88
2023-01-27T01:21:22.979Z,100541.44
2023-01-27T01:23:50.291Z,100541.97
2023-01-27T01:26:18.175Z,100535.81
2023-01-27T01:28:46.094Z,100527.19
2023-01-27T01:31:16.135Z,100527.53
2023-01-27T01:33:43.272Z,100522.47
2023-01-27T01:36:12.698Z,100533.69
2023-01-27T01:38:40.784Z,100530.91
2023-01-27T01:41:11.568Z,100528.56
2023-01-27T01:43:38.868Z,100526.00
2023-01-27T01:46:10.040Z,100520.84
2023-01-27T01:48:42.538Z,100527.78
2023-01-27T01:51:13.597Z,100528.44
2023-01-27T01:53:48.291Z,100522.84
2023-01-27T01:56:19.243Z,100513.66
2023-01-27T01:58:48.253Z,100506.94
2023-01-27T02:01:17.933Z,100510.47
2023-01-27T02:03:49.975Z,100506.16
2023-01-27T02:06:17.586Z,100502.03
2023-01-27T02:08:47.856Z,100491.69
2023-01-27T02:11:15.913Z,100494.97
2023-01-27T02:13:43.754Z,100487.66
2023-01-27T02:16:11.986Z,100459.19
2023-01-27T02:18:40.850Z,100478.72
2023-01-27T02:21:08.433Z,100482.09
2023-01-27T02:24:00.558Z,100471.94
2023-01-27T02:26:32.347Z,100466.91
2023-01-27T02:29:00.874Z,100469.41
2023-01-27T02:31:28.135Z,100475.59
2023-01-27T02:33:59.172Z,100469.41
2023-01-27T02:36:27.822Z,100458.84
2023-01-27T02:38:57.306Z,100459.72
2023-01-27T02:41:30.924Z,100463.22
2023-01-27T02:44:00.954Z,100453.63
2023-01-27T02:46:28.415Z,100452.69
2023-01-27T02:48:55.826Z,100450.72
2023-01-27T02:51:23.266Z,100444.66
2023-01-27T02:53:50.434Z,100442.78
2023-01-27T02:56:17.497Z,100443.81
2023-01-27T02:58:44.554Z,100437.03
2023-01-27T03:01:13.231Z,100436.53
2023-01-27T03:03:47.558Z,100431.22
2023-01-27T03:06:15.191Z,100432.53
2023-01-27T03:08:42.697Z,100418.38
2023-01-27T03:11:10.041Z,100423.25
2023-01-27T03:13:37.701Z,100420.16
2023-01-27T03:16:26.831Z,100413.63
2023-01-27T03:18:56.721Z,100412.38
2023-01-27T03:21:24.061Z,100419.84
2023-01-27T03:23:51.031Z,100403.72
2023-01-27T03:26:18.227Z,100423.19
2023-01-27T03:29:05.341Z,100413.81
2023-01-27T03:31:32.550Z,100400.91
2023-01-27T03:34:01.053Z,100409.50
2023-01-27T03:36:46.812Z,100400.56
2023-01-27T03:39:32.089Z,100401.94
2023-01-27T03:42:17.821Z,100400.84
2023-01-27T03:45:03.250Z,100392.31
2023-01-27T03:47:30.796Z,100395.44
2023-01-27T03:49:59.169Z,100398.63
2023-01-27T03:52:26.865Z,100400.06
2023-01-27T03:54:53.706Z,100390.16
2023-01-27T03:57:20.921Z,100394.56
2023-01-27T03:59:47.840Z,100391.84
2023-01-27T04:02:35.168Z,100391.84
2023-01-27T04:05:22.436Z,100384.25
2023-01-27T04:07:49.555Z,100389.09
2023-01-27T04:10:22.108Z,100387.06
2023-01-27T04:12:52.219Z,100395.28
2023-01-27T04:15:19.626Z,100397.91
2023-01-27T04:17:46.961Z,100390.97
2023-01-27T04:20:15.382Z,100398.72
2023-01-27T04:22:43.643Z,100395.94
2023-01-27T04:25:13.742Z,100394.25
2023-01-27T04:27:41.438Z,100396.59
2023-01-27T04:30:14.647Z,100386.13
2023-01-27T04:32:45.703Z,100387.53
2023-01-27T04:35:13.028Z,100388.75
2023-01-27T04:37:41.943Z,100388.66
2023-01-27T04:40:10.819Z,100402.88
2023-01-27T04:42:37.971Z,100400.31
2023-01-27T04:45:05.600Z,100388.41
2023-01-27T04:47:32.804Z,100386.16
2023-01-27T04:50:00.011Z,100389.06
2023-01-27T04:52:27.513Z,100376.97
2023-01-27T04:54:55.792Z,100382.31
2023-01-27T04:57:23.071Z,100391.75
2023-01-27T04:59:50.188Z,100383.25
2023-01-27T05:02:17.370Z,100382.81
2023-01-27T05:04:44.358Z,100388.59
2023-01-27T05:07:11.571Z,100389.53
2023-01-27T05:09:39.443Z,100392.06
2023-01-27T05:12:08.163Z,100387.78
2023-01-27T05:14:35.006Z,100391.13
2023-01-27T05:17:02.186Z,100388.59
2023-01-27T05:19:29.170Z,100380.06
2023-01-27T05:21:56.448Z,100381.69
2023-01-27T05:24:23.382Z,100380.84
2023-01-27T05:26:50.574Z,100394.88
2023-01-27T05:29:18.857Z,100387.84
2023-01-27T05:31:46.173Z,100388.72
2023-01-27T05:34:13.305Z,100379.72
2023-01-27T05:36:40.444Z,100388.25
2023-01-27T05:39:10.161Z,100386.56
2023-01-27T05:41:37.831Z,100376.44
2023-01-27T05:44:05.194Z,100383.84
2023-01-27T05:46:33.928Z,100384.78
2023-01-27T05:49:04.266Z,100382.19
2023-01-27T05:51:33.513Z,100381.22
2023-01-27T05:54:01.128Z,100381.69
2023-01-27T05:56:28.621Z,100381.03
2023-01-27T05:58:56.882Z,100375.28
2023-01-27T06:01:26.659Z,100383.56
2023-01-27T06:03:55.688Z,100379.72
2023-01-27T06:06:24.885Z,100377.75
2023-01-27T06:08:51.870Z,100382.97
2023-01-27T06:11:21.127Z,100389.56
2023-01-27T06:13:48.566Z,100388.66
2023-01-27T06:16:20.672Z,100395.97
2023-01-27T06:18:48.310Z,100395.66
2023-01-27T06:21:17.736Z,100389.03
2023-01-27T06:23:44.876Z,100394.44
2023-01-27T06:26:13.787Z,100388.78
2023-01-27T06:28:40.928Z,100389.22
2023-01-27T06:31:09.818Z,100395.75
2023-01-27T06:33:37.236Z,100402.47
2023-01-27T06:36:06.899Z,100395.53
2023-01-27T06:38:35.830Z,100390.75
2023-01-27T06:41:03.583Z,100404.44
2023-01-27T06:43:30.930Z,100394.72
2023-01-27T06:45:58.268Z,100401.03
2023-01-27T06:48:26.542Z,100404.75
2023-01-27T06:50:54.125Z,100411.69
2023-01-27T06:53:21.575Z,100409.56
2023-01-27T06:55:55.770Z,100416.91
2023-01-27T06:58:22.889Z,100414.75
2023-01-27T07:00:50.172Z,100415.41
2023-01-27T07:03:17.205Z,100410.00
2023-01-27T07:05:44.558Z,100412.13
2023-01-27T07:08:11.466Z,100417.28
2023-01-27T07:10:39.403Z,100417.78
2023-01-27T07:13:09.108Z,100414.94
2023-01-27T07:15:36.711Z,100411.88
2023-01-27T07:18:04.429Z,100417.44
2023-01-27T07:20:32.305Z,100419.56
2023-01-27T07:23:00.168Z,100413.97
2023-01-27T07:25:28.677Z,100422.56
2023-01-27T07:27:57.250Z,100417.25
2023-01-27T07:30:26.017Z,100416.81
2023-01-27T07:32:54.433Z,100409.59
2023-01-27T07:35:21.938Z,100415.03
2023-01-27T07:37:48.777Z,100418.41
2023-01-27T07:40:16.812Z,100418.47
2023-01-27T07:42:43.799Z,100420.00
2023-01-27T07:45:11.222Z,100420.28
2023-01-27T07:47:40.085Z,100425.97
2023-01-27T07:50:07.730Z,100428.03
2023-01-27T07:52:34.718Z,100423.94
2023-01-27T07:55:01.935Z,100426.25
2023-01-27T07:57:28.895Z,100427.13
2023-01-27T07:59:56.668Z,100424.88
2023-01-27T08:02:24.131Z,100423.53
2023-01-27T08:04:53.936Z,100420.44
2023-01-27T08:07:21.070Z,100427.41
2023-01-27T08:09:48.341Z,100433.03
2023-01-27T08:12:15.323Z,100435.44
2023-01-27T08:14:42.609Z,100425.97
2023-01-27T08:17:09.539Z,100422.78
2023-01-27T08:19:36.780Z,100426.06
2023-01-27T08:22:05.180Z,100417.81
2023-01-27T08:24:32.335Z,100426.25
2023-01-27T08:26:59.170Z,100419.13
2023-01-27T08:29:26.494Z,100422.50
2023-01-27T08:31:53.413Z,100429.72
2023-01-27T08:34:21.042Z,100424.56
2023-01-27T08:36:47.993Z,100423.25
2023-01-27T08:39:16.884Z,100422.22
2023-01-27T08:41:43.810Z,100433.72
2023-01-27T08:44:11.080Z,100434.50
2023-01-27T08:46:38.039Z,100428.69
2023-01-27T08:49:05.619Z,100436.34
2023-01-27T08:51:34.609Z,100433.06
2023-01-27T08:54:02.030Z,100431.47
2023-01-27T08:56:30.845Z,100429.38
2023-01-27T08:58:58.173Z,100434.34
2023-01-27T09:01:25.296Z,100432.94
2023-01-27T09:03:52.848Z,100423.50
2023-01-27T09:06:21.799Z,100432.16
2023-01-27T09:09:11.217Z,100428.84
2023-01-27T09:11:41.662Z,100431.47
2023-01-27T09:14:09.371Z,100430.50
2023-01-27T09:16:36.730Z,100425.94
2023-01-27T09:19:04.244Z,100430.63
2023-01-27T09:21:31.761Z,100433.91
2023-01-27T09:23:59.156Z,100431.00
2023-01-27T09:26:26.162Z,100426.63
2023-01-27T09:28:54.671Z,100429.13
2023-01-27T09:31:21.715Z,100424.34
2023-01-27T09:33:49.070Z,100430.34
2023-01-27T09:36:19.151Z,100430.69
2023-01-27T09:38:50.220Z,100428.63
2023-01-27T09:41:46.998Z,100427.59
2023-01-27T09:44:41.299Z,100417.44
2023-01-27T09:47:23.805Z,100413.34
2023-01-27T09:50:12.934Z,100402.63
2023-01-27T09:53:00.023Z,100409.53
2023-01-27T09:55:38.614Z,100414.50
2023-01-27T09:58:15.606Z,100415.16
2023-01-27T10:00:57.260Z,100420.34
2023-01-27T10:03:38.126Z,100416.44
2023-01-27T10:06:39.187Z,100415.19
2023-01-27T10:09:35.630Z,100413.03
2023-01-27T10:12:13.273Z,100411.88
2023-01-27T10:14:50.485Z,100409.81
2023-01-27T10:17:31.297Z,100403.91
2023-01-27T10:20:12.746Z,100395.44
2023-01-27T10:22:53.096Z,100402.44
2023-01-27T10:25:31.711Z,100389.31
2023-01-27T10:28:10.098Z,100397.94
2023-01-27T10:30:38.283Z,100397.78
2023-01-27T10:33:16.469Z,100381.75
2023-01-27T10:35:51.263Z,100385.06
2023-01-27T10:38:32.268Z,100380.03
2023-01-27T10:41:07.604Z,100387.28
2023-01-27T10:43:53.725Z,100381.41
2023-01-27T10:46:34.414Z,100368.06
2023-01-27T10:49:06.534Z,100358.47
2023-01-27T10:51:38.228Z,100360.25
2023-01-27T10:54:13.363Z,100368.41
2023-01-27T10:56:45.855Z,100368.34
2023-01-27T10:59:25.009Z,100370.91
2023-01-27T11:02:01.717Z,100376.16
2023-01-27T11:04:42.958Z,100378.66
2023-01-27T11:07:18.245Z,100376.59
2023-01-27T11:09:53.834Z,100374.84
2023-01-27T11:12:26.518Z,100376.25
2023-01-27T11:14:54.212Z,100371.06
2023-01-27T11:17:29.092Z,100367.34
2023-01-27T11:20:15.281Z,100359.47
2023-01-27T11:22:51.080Z,100359.84
2023-01-27T11:25:27.302Z,100358.25
2023-01-27T11:28:05.529Z,100362.28
2023-01-27T11:30:39.268Z,100366.69
2023-01-27T11:33:17.812Z,100363.03
2023-01-27T11:35:53.832Z,100367.72
2023-01-27T11:38:22.696Z,100364.44
2023-01-27T11:40:51.672Z,100360.44
2023-01-27T11:43:21.219Z,100365.28
2023-01-27T11:45:50.015Z,100365.28
2023-01-27T11:48:21.759Z,100359.28
2023-01-27T11:50:51.841Z,100359.19
2023-01-27T11:53:25.428Z,100356.56
2023-01-27T11:55:58.292Z,100355.84
2023-01-27T11:58:30.607Z,100362.09
2023-01-27T12:01:01.843Z,100356.81
2023-01-27T12:03:43.614Z,100351.75
2023-01-27T12:06:17.369Z,100363.94
2023-01-27T12:08:46.378Z,100358.94
2023-01-27T12:11:24.690Z,100356.88
2023-01-27T12:13:54.135Z,100362.41
2023-01-27T12:16:23.629Z,100359.09
2023-01-27T12:19:02.623Z,100346.06
2023-01-27T12:21:47.140Z,100361.91
2023-01-27T12:24:24.477Z,100354.25
2023-01-27T12:26:53.562Z,100354.91
2023-01-27T12:29:26.225Z,100362.78
2023-01-27T12:31:55.724Z,100357.34
2023-01-27T12:34:25.857Z,100353.69
2023-01-27T12:36:56.076Z,100354.28
2023-01-27T12:39:42.057Z,100349.59
2023-01-27T12:42:36.063Z,100350.34
2023-01-27T12:45:19.227Z,100339.28
2023-01-27T12:47:56.891Z,100357.78
2023-01-27T12:50:26.265Z,100350.84
2023-01-27T12:53:15.067Z,100347.38
2023-01-27T12:55:46.116Z,100353.31
2023-01-27T12:58:33.900Z,100349.75
2023-01-27T13:01:03.097Z,100354.66
2023-01-27T13:03:31.232Z,100348.66
2023-01-27T13:06:00.231Z,100354.16
2023-01-27T13:08:33.620Z,100350.72
2023-01-27T13:11:02.827Z,100349.84
2023-01-27T13:13:31.128Z,100347.59
2023-01-27T13:16:08.338Z,100343.91
2023-01-27T13:18:38.922Z,100343.50
2023-01-27T13:21:14.302Z,100339.25
2023-01-27T13:23:44.541Z,100343.09
2023-01-27T13:26:17.132Z,100342.34
2023-01-27T13:28:53.317Z,100343.28
2023-01-27T13:31:34.203Z,100346.91
2023-01-27T13:34:06.245Z,100342.38
2023-01-27T13:36:40.873Z,100346.22
2023-01-27T13:39:17.633Z,100348.94
2023-01-27T13:41:50.067Z,100352.59
2023-01-27T13:44:25.799Z,100356.34
2023-01-27T13:46:55.200Z,100354.28
2023-01-27T13:49:32.031Z,100357.56
2023-01-27T13:51:58.951Z,100368.72
2023-01-27T13:54:30.141Z,100374.66
2023-01-27T13:57:18.659Z,100373.34
2023-01-27T13:59:57.881Z,100365.94
2023-01-27T14:02:59.213Z,100374.88
2023-01-27T14:05:39.572Z,100374.94
2023-01-27T14:08:20.745Z,100376.38
2023-01-27T14:11:04.279Z,100375.47
2023-01-27T14:13:47.414Z,100387.00
2023-01-27T14:16:22.963Z,100388.06
2023-01-27T14:21:56.048Z,100394.47
2023-01-27T14:24:36.097Z,100393.28
2023-01-27T14:27:13.117Z,100400.09
2023-01-27T14:29:48.777Z,100394.31
2023-01-27T14:32:26.754Z,100397.19
2023-01-27T14:35:09.898Z,100398.81
2023-01-27T14:37:45.343Z,100397.03
2023-01-27T14:40:17.969Z,100402.38
2023-01-27T14:43:07.433Z,100386.34
2023-01-27T14:45:37.138Z,100396.94
2023-01-27T14:48:14.598Z,100395.53
2023-01-27T14:50:48.576Z,100397.97
2023-01-27T14:53:32.589Z,100405.75
2023-01-27T14:56:07.457Z,100402.06
2023-01-27T14:58:46.674Z,100402.19
2023-01-27T15:01:24.720Z,100402.00
2023-01-27T15:04:16.673Z,100407.72
2023-01-27T15:06:47.583Z,100411.06
2023-01-27T15:09:34.566Z,100412.84
2023-01-27T15:12:22.615Z,100413.78
2023-01-27T15:15:21.619Z,100410.03
2023-01-27T15:18:06.690Z,100417.06
2023-01-27T15:20:48.773Z,100419.31
2023-01-27T15:23:53.586Z,100413.44
2023-01-27T15:26:25.493Z,100409.56
2023-01-27T15:28:53.509Z,100410.72
2023-01-27T15:31:25.464Z,100417.00
2023-01-27T15:33:55.729Z,100421.59
2023-01-27T15:36:35.630Z,100422.63
2023-01-27T15:39:16.704Z,100421.88
2023-01-27T15:42:09.961Z,100423.84
2023-01-27T15:44:42.494Z,100417.53
2023-01-27T15:47:14.906Z,100419.63
2023-01-27T15:49:46.685Z,100420.28
2023-01-27T15:52:27.563Z,100413.44
2023-01-27T15:54:57.757Z,100423.28
2023-01-27T15:57:29.911Z,100413.63
2023-01-27T16:00:04.719Z,100413.72
2023-01-27T16:02:37.925Z,100416.25
2023-01-27T16:05:23.921Z,100411.38
2023-01-27T16:07:54.262Z,100411.47
2023-01-27T16:10:24.679Z,100409.78
2023-01-27T16:13:22.333Z,100415.19
2023-01-27T16:16:25.174Z,100415.41
2023-01-27T16:19:01.257Z,100424.75
2023-01-27T16:21:43.802Z,100423.28
2023-01-27T16:24:23.782Z,100437.03
2023-01-27T16:26:56.556Z,100436.41
2023-01-27T16:29:35.113Z,100427.50
2023-01-27T16:32:07.097Z,100440.69
2023-01-27T16:34:40.062Z,100438.94
2023-01-27T16:37:22.327Z,100441.63
2023-01-27T16:39:56.379Z,100433.19
2023-01-27T16:42:31.109Z,100446.22
2023-01-27T16:45:01.655Z,100448.66
2023-01-27T16:47:37.506Z,100444.72
2023-01-27T16:50:07.105Z,100443.03
2023-01-27T16:52:42.236Z,100443.88
2023-01-27T16:55:20.438Z,100432.44
2023-01-27T16:57:47.708Z,100441.16
2023-01-27T17:00:20.270Z,100437.34
2023-01-27T17:02:48.225Z,100439.84
2023-01-27T17:05:17.967Z,100437.78
2023-01-27T17:08:01.875Z,100449.38
2023-01-27T17:10:34.743Z,100446.03
2023-01-27T17:13:03.615Z,100456.44
2023-01-27T17:15:35.514Z,100454.84
2023-01-27T17:18:08.006Z,100455.78
2023-01-27T17:20:39.455Z,100450.34
2023-01-27T17:23:07.293Z,100451.56
2023-01-27T17:25:37.636Z,100451.75
2023-01-27T17:28:11.621Z,100447.41
2023-01-27T17:30:42.096Z,100452.50
2023-01-27T17:33:17.082Z,100443.88
2023-01-27T17:35:50.788Z,100448.00
2023-01-27T17:38:24.252Z,100447.25
2023-01-27T17:40:53.967Z,100433.75
2023-01-27T17:43:28.847Z,100437.59
2023-01-27T17:46:13.358Z,100428.03
2023-01-27T17:48:47.074Z,100445.50
2023-01-27T17:51:21.435Z,100446.69
2023-01-27T17:53:49.569Z,100444.78
2023-01-27T17:56:21.446Z,100450.91
2023-01-27T17:58:52.950Z,100431.59
2023-01-27T18:01:26.092Z,100463.72
2023-01-27T18:03:56.848Z,100453.97
2023-01-27T18:06:29.588Z,100455.97
2023-01-27T18:09:02.361Z,100467.66
2023-01-27T18:11:31.634Z,100471.97
2023-01-27T18:14:01.753Z,100471.44
2023-01-27T18:16:29.927Z,100479.41
2023-01-27T18:19:10.047Z,100488.00
2023-01-27T18:21:41.133Z,100476.13
2023-01-27T18:24:20.263Z,100481.84
2023-01-27T18:26:48.691Z,100484.63
2023-01-27T18:29:24.656Z,100474.53
2023-01-27T18:31:54.908Z,100488.97
2023-01-27T18:34:28.525Z,100478.34
2023-01-27T18:36:58.683Z,100483.38
2023-01-27T18:39:34.432Z,100493.03
2023-01-27T18:42:02.299Z,100490.63
2023-01-27T18:44:35.839Z,100487.75
2023-01-27T18:47:26.453Z,100491.84
2023-01-27T18:50:00.435Z,100491.50
2023-01-27T18:52:29.794Z,100495.78
2023-01-27T18:55:01.079Z,100492.72
2023-01-27T18:57:28.394Z,100498.72
2023-01-27T18:59:56.401Z,100480.13
2023-01-27T19:02:25.148Z,100495.50
2023-01-27T19:04:52.933Z,100481.94
2023-01-27T19:07:19.871Z,100495.63
2023-01-27T19:09:53.295Z,100498.63
2023-01-27T19:12:20.227Z,100497.38
2023-01-27T19:14:48.773Z,100498.41
2023-01-27T19:17:23.166Z,100493.16
2023-01-27T19:19:50.532Z,100497.56
2023-01-27T19:22:19.796Z,100498.03
2023-01-27T19:24:50.480Z,100500.47
2023-01-27T19:27:19.311Z,100501.59
2023-01-27T19:29:46.411Z,100498.78
2023-01-27T19:32:14.611Z,100501.25
2023-01-27T19:34:41.893Z,100500.09
2023-01-27T19:37:16.968Z,100506.78
2023-01-27T19:39:45.086Z,100495.44
2023-01-27T19:42:14.793Z,100495.63
2023-01-27T19:44:42.403Z,100507.81
2023-01-27T19:47:11.966Z,100516.41
2023-01-27T19:49:41.563Z,100501.03
2023-01-27T19:52:10.127Z,100502.94
2023-01-27T19:54:37.975Z,100509.78
2023-01-27T19:57:06.027Z,100518.59
2023-01-27T19:59:34.977Z,100510.44
2023-01-27T20:02:01.959Z,100509.28
2023-01-27T20:04:29.623Z,100512.69
2023-01-27T20:06:57.743Z,100515.19
2023-01-27T20:09:25.016Z,100515.84
2023-01-27T20:11:52.071Z,100519.03
2023-01-27T20:14:20.387Z,100513.63
2023-01-27T20:16:48.743Z,100519.91
2023-01-27T20:19:16.561Z,100517.28
2023-01-27T20:21:45.664Z,100513.22
2023-01-27T20:24:15.735Z,100523.94
2023-01-27T20:26:42.789Z,100529.34
2023-01-27T20:29:10.169Z,100526.72
2023-01-27T20:31:39.233Z,100530.78
2023-01-27T20:34:08.236Z,100539.94
2023-01-27T20:36:36.338Z,100538.06
2023-01-27T20:39:04.517Z,100532.81
2023-01-27T20:41:31.529Z,100541.72
2023-01-27T20:44:00.469Z,100538.63
2023-01-27T20:46:28.526Z,100531.59
2023-01-27T20:48:56.421Z,100538.28
2023-01-27T20:51:25.102Z,100534.22
2023-01-27T20:53:52.299Z,100533.84
2023-01-27T20:56:21.027Z,100532.09
2023-01-27T20:58:48.966Z,100533.97
2023-01-27T21:01:17.681Z,100535.06
2023-01-27T21:03:45.079Z,100530.50
2023-01-27T21:06:13.951Z,100524.66
2023-01-27T21:08:47.535Z,100533.31
2023-01-27T21:11:20.544Z,100541.94
2023-01-27T21:13:48.683Z,100530.41
2023-01-27T21:16:15.647Z,100531.16
2023-01-27T21:18:44.152Z,100530.41
2023-01-27T21:21:22.125Z,100535.00
2023-01-27T21:23:50.808Z,100535.81
2023-01-27T21:26:17.714Z,100543.53
2023-01-27T21:28:45.049Z,100538.28
2023-01-27T21:31:16.238Z,100537.34
2023-01-27T21:33:45.736Z,100534.78
2023-01-27T21:36:12.964Z,100540.91
2023-01-27T21:38:40.468Z,100525.25
2023-01-27T21:41:11.709Z,100526.47
2023-01-27T21:43:57.858Z,100530.78
2023-01-27T21:46:24.971Z,100530.03
2023-01-27T21:48:52.417Z,100544.72
2023-01-27T21:51:19.429Z,100543.03
2023-01-27T21:53:46.660Z,100537.41
2023-01-27T21:56:14.960Z,100533.03
2023-01-27T21:58:42.367Z,100542.50
2023-01-27T22:01:10.801Z,100540.63
2023-01-27T22:03:38.528Z,100543.91
2023-01-27T22:06:06.913Z,100528.22
2023-01-27T22:08:34.462Z,100516.63
2023-01-27T22:11:04.788Z,100535.06
2023-01-27T22:13:33.823Z,100539.78
2023-01-27T22:16:01.065Z,100542.41
2023-01-27T22:18:28.353Z,100542.00
2023-01-27T22:20:55.564Z,100536.41
2023-01-27T22:23:25.073Z,100541.28
2023-01-27T22:25:52.433Z,100541.06
2023-01-27T22:28:19.970Z,100537.41
2023-01-27T22:30:48.746Z,100535.44
2023-01-27T22:33:16.190Z,100537.91
2023-01-27T22:35:43.309Z,100530.84
2023-01-27T22:38:10.634Z,100525.72
2023-01-27T22:40:37.474Z,100531.72
2023-01-27T22:43:10.038Z,100530.75
2023-01-27T22:45:38.270Z,100528.06
2023-01-27T22:48:08.803Z,100533.09
2023-01-27T22:50:36.289Z,100529.81
2023-01-27T22:53:05.373Z,100529.00
2023-01-27T22:55:32.347Z,100530.69
2023-01-27T22:57:59.472Z,100534.03
2023-01-27T23:00:26.442Z,100508.94
2023-01-27T23:02:54.345Z,100526.28
2023-01-27T23:05:22.695Z,100528.78
2023-01-27T23:07:49.847Z,100523.63
2023-01-27T23:10:17.417Z,100522.78
2023-01-27T23:12:45.035Z,100525.41
2023-01-27T23:15:12.461Z,100533.50
2023-01-27T23:17:40.081Z,100535.25
2023-01-27T23:20:08.593Z,100526.53
2023-01-27T23:22:37.353Z,100534.53
2023-01-27T23:25:05.079Z,100533.09
2023-01-27T23:27:32.724Z,100530.59
2023-01-27T23:29:59.714Z,100530.47
2023-01-27T23:32:26.977Z,100535.72
2023-01-27T23:34:53.901Z,100535.84
2023-01-27T23:37:21.142Z,100534.81
2023-01-27T23:39:49.826Z,100538.19
2023-01-27T23:42:17.705Z,100535.25
2023-01-27T23:44:44.795Z,100536.84
2023-01-27T23:47:12.828Z,100541.81
2023-01-27T23:49:39.917Z,100537.31
2023-01-27T23:52:07.521Z,100536.56
2023-01-27T23:54:34.634Z,100538.16
2023-01-27T23:57:03.329Z,100541.66
2023-01-27T23:59:30.286Z,100544.16
